Time,TemperatureF,DewpointF,PressureIn,WindDirection,WindDirectionDegrees,WindSpeedMPH,WindSpeedGustMPH,Humidity,HourlyPrecipIn,Conditions,Clouds,dailyrainin,SoftwareType,DateUTC
2013-04-12 00:00:00,31.7,29.9,29.74,SSW,202,2.0,6.0,93,0.00,,,0.00,WeatherCatV1.15B25,2013-04-12 04:00:00,
2013-04-12 00:05:00,31.7,29.9,29.74,SSW,202,2.0,6.0,93,0.00,,,0.00,WeatherCatV1.15B25,2013-04-12 04:05:00,
2013-04-12 00:10:00,31.7,29.9,29.74,SSW,202,2.0,5.0,93,0.00,,,0.00,WeatherCatV1.15B25,2013-04-12 04:10:00,
2013-04-12 00:15:00,31.7,29.9,29.74,SSW,202,2.0,5.0,93,0.00,,,0.00,WeatherCatV1.15B25,2013-04-12 04:15:00,
2013-04-12 00:20:00,31.7,29.9,29.74,SSW,202,2.0,5.0,93,0.00,,,0.00,WeatherCatV1.15B25,2013-04-12 04:20:00,
2013-04-12 00:25:00,31.7,29.9,29.74,SSW,202,2.0,5.0,93,0.00,,,0.00,WeatherCatV1.15B25,2013-04-12 04:25:00,
2013-04-12 00:30:00,31.7,29.9,29.74,SSW,202,2.0,5.0,93,0.00,,,0.00,WeatherCatV1.15B25,2013-04-12 04:30:00,
2013-04-12 00:35:00,31.7,29.9,29.74,SSW,202,2.0,5.0,93,0.00,,,0.00,WeatherCatV1.15B25,2013-04-12 04:35:00,
2013-04-12 00:40:00,31.5,29.7,29.73,SSW,202,2.0,4.0,93,0.00,,,0.00,WeatherCatV1.15B25,2013-04-12 04:40:00,
2013-04-12 00:45:00,31.5,29.7,29.73,SSW,202,2.0,4.0,93,0.00,,,0.00,WeatherCatV1.15B25,2013-04-12 04:45:00,
2013-04-12 00:50:00,31.5,29.7,29.73,SSW,202,2.0,4.0,93,0.00,,,0.00,WeatherCatV1.15B25,2013-04-12 04:50:00,
2013-04-12 00:55:00,31.5,29.7,29.73,SSW,202,2.0,4.0,93,0.00,,,0.00,WeatherCatV1.15B25,2013-04-12 04:55:00,
2013-04-12 01:00:00,31.5,29.7,29.73,SSW,202,2.0,4.0,93,0.00,,,0.00,WeatherCatV1.15B25,2013-04-12 05:00:00,
2013-04-12 01:05:00,31.5,29.7,29.73,SSW,202,2.0,4.0,93,0.00,,,0.00,WeatherCatV1.15B25,2013-04-12 05:05:00,
2013-04-12 01:10:00,31.6,29.6,29.71,SSW,202,2.0,7.0,92,0.00,,,0.00,WeatherCatV1.15B25,2013-04-12 05:10:00,
2013-04-12 01:15:00,31.6,29.6,29.71,SSW,202,2.0,7.0,92,0.00,,,0.00,WeatherCatV1.15B25,2013-04-12 05:15:00,
2013-04-12 01:20:00,31.6,29.6,29.71,SSW,202,2.0,7.0,92,0.00,,,0.00,WeatherCatV1.15B25,2013-04-12 05:20:00,
2013-04-12 01:25:00,31.6,29.6,29.71,SSW,202,2.0,7.0,92,0.00,,,0.00,WeatherCatV1.15B25,2013-04-12 05:25:00,
2013-04-12 01:30:00,31.6,29.6,29.71,SSW,202,2.0,7.0,92,0.00,,,0.00,WeatherCatV1.15B25,2013-04-12 05:30:00,
2013-04-12 01:35:00,31.6,29.6,29.71,SSW,202,2.0,7.0,92,0.00,,,0.00,WeatherCatV1.15B25,2013-04-12 05:35:00,
2013-04-12 01:40:00,31.7,29.4,29.71,SSW,202,2.0,6.0,91,0.00,,,0.00,WeatherCatV1.15B25,2013-04-12 05:40:00,
2013-04-12 01:45:00,31.7,29.4,29.71,SSW,202,2.0,6.0,91,0.00,,,0.00,WeatherCatV1.15B25,2013-04-12 05:45:00,
2013-04-12 01:50:00,31.7,29.4,29.71,SSW,202,2.0,6.0,91,0.00,,,0.00,WeatherCatV1.15B25,2013-04-12 05:50:00,
2013-04-12 01:55:00,31.7,29.4,29.71,SSW,202,2.0,6.0,91,0.00,,,0.00,WeatherCatV1.15B25,2013-04-12 05:55:00,
2013-04-12 02:00:00,31.7,29.4,29.71,SSW,202,2.0,6.0,91,0.00,,,0.00,WeatherCatV1.15B25,2013-04-12 06:00:00,
2013-04-12 02:05:00,31.7,29.4,29.71,SSW,202,2.0,6.0,91,0.00,,,0.00,WeatherCatV1.15B25,2013-04-12 06:05:00,
2013-04-12 02:10:00,31.5,29.2,29.69,SSW,202,2.0,6.0,91,0.00,,,0.00,WeatherCatV1.15B25,2013-04-12 06:10:00,
2013-04-12 02:15:00,31.5,29.2,29.69,SSW,202,2.0,6.0,91,0.00,,,0.00,WeatherCatV1.15B25,2013-04-12 06:15:00,
2013-04-12 02:20:00,31.5,29.2,29.69,SSW,202,2.0,6.0,91,0.00,,,0.00,WeatherCatV1.15B25,2013-04-12 06:20:00,
2013-04-12 02:25:00,31.5,29.2,29.69,SSW,202,2.0,6.0,91,0.00,,,0.00,WeatherCatV1.15B25,2013-04-12 06:25:00,
2013-04-12 02:30:00,31.5,29.2,29.69,SSW,202,2.0,6.0,91,0.00,,,0.00,WeatherCatV1.15B25,2013-04-12 06:30:00,
2013-04-12 02:35:00,31.5,29.2,29.69,SSW,202,2.0,6.0,91,0.00,,,0.00,WeatherCatV1.15B25,2013-04-12 06:35:00,
2013-04-12 02:40:00,31.4,28.8,29.70,SSW,202,2.0,7.0,90,0.00,,,0.00,WeatherCatV1.15B25,2013-04-12 06:40:00,
2013-04-12 02:45:00,31.4,28.8,29.70,SSW,202,2.0,7.0,90,0.00,,,0.00,WeatherCatV1.15B25,2013-04-12 06:45:00,
2013-04-12 02:50:00,31.4,28.8,29.70,SSW,202,2.0,7.0,90,0.00,,,0.00,WeatherCatV1.15B25,2013-04-12 06:50:00,
2013-04-12 02:55:00,31.4,28.8,29.70,SSW,202,2.0,7.0,90,0.00,,,0.00,WeatherCatV1.15B25,2013-04-12 06:55:00,
2013-04-12 03:00:00,31.4,28.8,29.70,SSW,202,2.0,7.0,90,0.00,,,0.00,WeatherCatV1.15B25,2013-04-12 07:00:00,
2013-04-12 03:05:00,31.4,28.8,29.70,SSW,202,2.0,7.0,90,0.00,,,0.00,WeatherCatV1.15B25,2013-04-12 07:05:00,
2013-04-12 03:10:00,30.9,28.6,29.67,SSW,202,3.0,6.0,91,0.00,,,0.00,WeatherCatV1.15B25,2013-04-12 07:10:00,
2013-04-12 03:15:00,30.9,28.6,29.67,SSW,202,3.0,6.0,91,0.00,,,0.00,WeatherCatV1.15B25,2013-04-12 07:15:00,
2013-04-12 03:20:00,30.9,28.6,29.67,SSW,202,3.0,6.0,91,0.00,,,0.00,WeatherCatV1.15B25,2013-04-12 07:20:00,
2013-04-12 03:25:00,30.9,28.6,29.67,SSW,202,3.0,6.0,91,0.00,,,0.00,WeatherCatV1.15B25,2013-04-12 07:25:00,
2013-04-12 03:30:00,30.9,28.6,29.67,SSW,202,3.0,6.0,91,0.00,,,0.00,WeatherCatV1.15B25,2013-04-12 07:30:00,
2013-04-12 03:35:00,30.9,28.6,29.67,SSW,202,3.0,6.0,91,0.00,,,0.00,WeatherCatV1.15B25,2013-04-12 07:35:00,
2013-04-12 03:40:00,30.9,28.6,29.65,SSW,202,2.0,6.0,91,0.00,,,0.00,WeatherCatV1.15B25,2013-04-12 07:40:00,
2013-04-12 03:45:00,30.9,28.6,29.65,SSW,202,2.0,6.0,91,0.00,,,0.00,WeatherCatV1.15B25,2013-04-12 07:45:00,
2013-04-12 03:50:00,30.9,28.6,29.65,SSW,202,2.0,6.0,91,0.00,,,0.00,WeatherCatV1.15B25,2013-04-12 07:50:00,
2013-04-12 03:55:00,30.9,28.6,29.65,SSW,202,2.0,6.0,91,0.00,,,0.00,WeatherCatV1.15B25,2013-04-12 07:55:00,
2013-04-12 04:00:00,30.9,28.6,29.65,SSW,202,2.0,6.0,91,0.00,,,0.00,WeatherCatV1.15B25,2013-04-12 08:00:00,
2013-04-12 04:05:00,30.9,28.6,29.65,SSW,202,2.0,6.0,91,0.00,,,0.00,WeatherCatV1.15B25,2013-04-12 08:05:00,
2013-04-12 04:10:00,30.9,28.3,29.63,SSW,202,3.0,8.0,90,0.00,,,0.00,WeatherCatV1.15B25,2013-04-12 08:10:00,
2013-04-12 04:15:00,30.9,28.3,29.63,SSW,202,3.0,8.0,90,0.00,,,0.00,WeatherCatV1.15B25,2013-04-12 08:15:00,
2013-04-12 04:20:00,30.9,28.3,29.63,SSW,202,3.0,8.0,90,0.00,,,0.00,WeatherCatV1.15B25,2013-04-12 08:20:00,
2013-04-12 04:25:00,30.9,28.3,29.63,SSW,202,3.0,8.0,90,0.00,,,0.00,WeatherCatV1.15B25,2013-04-12 08:25:00,
2013-04-12 04:30:00,30.9,28.3,29.63,SSW,202,3.0,8.0,90,0.00,,,0.00,WeatherCatV1.15B25,2013-04-12 08:30:00,
2013-04-12 04:35:00,30.9,28.3,29.63,SSW,202,3.0,8.0,90,0.00,,,0.00,WeatherCatV1.15B25,2013-04-12 08:35:00,
2013-04-12 04:40:00,31.0,28.4,29.62,SSW,202,3.0,7.0,90,0.00,,,0.00,WeatherCatV1.15B25,2013-04-12 08:40:00,
2013-04-12 04:45:00,31.0,28.4,29.62,SSW,202,3.0,7.0,90,0.00,,,0.00,WeatherCatV1.15B25,2013-04-12 08:45:00,
2013-04-12 04:50:00,31.0,28.4,29.62,SSW,202,3.0,7.0,90,0.00,,,0.00,WeatherCatV1.15B25,2013-04-12 08:50:00,
2013-04-12 04:55:00,31.0,28.4,29.62,SSW,202,3.0,7.0,90,0.00,,,0.00,WeatherCatV1.15B25,2013-04-12 08:55:00,
2013-04-12 05:00:00,31.0,28.4,29.62,SSW,202,3.0,7.0,90,0.00,,,0.00,WeatherCatV1.15B25,2013-04-12 09:00:00,
2013-04-12 05:05:00,31.0,28.4,29.62,SSW,202,3.0,7.0,90,0.00,,,0.00,WeatherCatV1.15B25,2013-04-12 09:05:00,
2013-04-12 05:10:00,31.0,28.4,29.62,SSW,202,2.0,7.0,90,0.00,,,0.00,WeatherCatV1.15B25,2013-04-12 09:10:00,
2013-04-12 05:15:00,31.0,28.4,29.62,SSW,202,2.0,7.0,90,0.00,,,0.00,WeatherCatV1.15B25,2013-04-12 09:15:00,
2013-04-12 05:20:00,31.0,28.4,29.62,SSW,202,2.0,7.0,90,0.00,,,0.00,WeatherCatV1.15B25,2013-04-12 09:20:00,
2013-04-12 05:25:00,31.0,28.4,29.62,SSW,202,2.0,7.0,90,0.00,,,0.00,WeatherCatV1.15B25,2013-04-12 09:25:00,
2013-04-12 05:30:00,31.0,28.4,29.62,SSW,202,2.0,7.0,90,0.00,,,0.00,WeatherCatV1.15B25,2013-04-12 09:30:00,
2013-04-12 05:35:00,31.0,28.4,29.62,SSW,202,2.0,7.0,90,0.00,,,0.00,WeatherCatV1.15B25,2013-04-12 09:35:00,
2013-04-12 05:40:00,30.9,28.3,29.62,SSW,202,2.0,4.0,90,0.00,,,0.00,WeatherCatV1.15B25,2013-04-12 09:40:00,
2013-04-12 05:45:00,30.9,28.3,29.62,SSW,202,2.0,4.0,90,0.00,,,0.00,WeatherCatV1.15B25,2013-04-12 09:45:00,
2013-04-12 05:50:00,30.9,28.3,29.62,SSW,202,2.0,4.0,90,0.00,,,0.00,WeatherCatV1.15B25,2013-04-12 09:50:00,
2013-04-12 05:55:00,30.9,28.3,29.62,SSW,202,2.0,4.0,90,0.00,,,0.00,WeatherCatV1.15B25,2013-04-12 09:55:00,
2013-04-12 06:00:00,30.9,28.3,29.62,SSW,202,2.0,4.0,90,0.00,,,0.00,WeatherCatV1.15B25,2013-04-12 10:00:00,
2013-04-12 06:05:00,30.9,28.3,29.62,SSW,202,2.0,4.0,90,0.00,,,0.00,WeatherCatV1.15B25,2013-04-12 10:05:00,
2013-04-12 06:10:00,30.8,28.2,29.60,SSW,202,1.0,4.0,90,0.00,,,0.00,WeatherCatV1.15B25,2013-04-12 10:10:00,
2013-04-12 06:15:00,30.8,28.2,29.60,SSW,202,1.0,4.0,90,0.00,,,0.00,WeatherCatV1.15B25,2013-04-12 10:15:00,
2013-04-12 06:20:00,30.8,28.2,29.60,SSW,202,1.0,4.0,90,0.00,,,0.00,WeatherCatV1.15B25,2013-04-12 10:20:00,
2013-04-12 06:25:00,30.8,28.2,29.60,SSW,202,1.0,4.0,90,0.00,,,0.00,WeatherCatV1.15B25,2013-04-12 10:25:00,
2013-04-12 06:30:00,30.8,28.2,29.60,SSW,202,1.0,4.0,90,0.00,,,0.00,WeatherCatV1.15B25,2013-04-12 10:30:00,
2013-04-12 06:35:00,30.8,28.2,29.60,SSW,202,1.0,4.0,90,0.00,,,0.00,WeatherCatV1.15B25,2013-04-12 10:35:00,
2013-04-12 06:45:00,30.9,28.0,29.59,SSW,195,2.0,3.0,89,0.00,,,0.00,WeatherCatV1.15B25,2013-04-12 10:45:00,
2013-04-12 06:50:00,30.9,28.0,29.59,SSW,195,2.0,3.0,89,0.00,,,0.00,WeatherCatV1.15B25,2013-04-12 10:50:00,
2013-04-12 06:55:00,30.9,28.0,29.59,SSW,195,0.0,3.0,89,0.00,,,0.00,WeatherCatV1.15B25,2013-04-12 10:55:00,
2013-04-12 07:00:00,30.9,28.3,29.59,SSW,195,1.0,2.0,90,0.00,,,0.00,WeatherCatV1.15B25,2013-04-12 11:00:00,
2013-04-12 07:05:00,30.9,28.0,29.59,SSW,195,0.0,1.0,89,0.00,,,0.00,WeatherCatV1.15B25,2013-04-12 11:05:00,
2013-04-12 07:10:00,30.8,28.2,29.59,SSW,195,1.0,1.0,90,0.00,,,0.00,WeatherCatV1.15B25,2013-04-12 11:10:00,
2013-04-12 07:15:00,30.8,28.2,29.59,SSW,195,2.0,2.0,90,0.00,,,0.00,WeatherCatV1.15B25,2013-04-12 11:15:00,
2013-04-12 07:20:00,30.9,28.0,29.59,SSW,195,1.0,3.0,89,0.00,,,0.00,WeatherCatV1.15B25,2013-04-12 11:20:00,
2013-04-12 07:25:00,30.9,28.3,29.59,SSW,195,1.0,2.0,90,0.00,,,0.00,WeatherCatV1.15B25,2013-04-12 11:25:00,
2013-04-12 07:30:00,30.9,28.3,29.59,SSW,195,1.0,3.0,90,0.00,,,0.00,WeatherCatV1.15B25,2013-04-12 11:30:00,
2013-04-12 07:35:00,30.9,28.0,29.59,SSW,195,1.0,2.0,89,0.00,,,0.00,WeatherCatV1.15B25,2013-04-12 11:35:00,
2013-04-12 07:40:00,30.9,28.3,29.59,SSW,195,0.0,2.0,90,0.00,,,0.00,WeatherCatV1.15B25,2013-04-12 11:40:00,
2013-04-12 07:45:00,30.9,28.3,29.58,SSW,195,1.0,1.0,90,0.00,,,0.00,WeatherCatV1.15B25,2013-04-12 11:45:00,
2013-04-12 07:50:00,30.9,28.3,29.58,SSW,195,2.0,2.0,90,0.00,,,0.00,WeatherCatV1.15B25,2013-04-12 11:50:00,
2013-04-12 07:55:00,30.9,28.3,29.58,SSW,195,1.0,1.0,90,0.00,,,0.00,WeatherCatV1.15B25,2013-04-12 11:55:00,
2013-04-12 08:00:00,30.9,28.3,29.58,SSW,195,1.0,2.0,90,0.00,,,0.00,WeatherCatV1.15B25,2013-04-12 12:00:00,
2013-04-12 08:05:00,30.9,28.3,29.58,SSW,195,1.0,3.0,90,0.00,,,0.00,WeatherCatV1.15B25,2013-04-12 12:05:00,
2013-04-12 08:10:00,30.9,28.3,29.58,SSW,195,2.0,2.0,90,0.00,,,0.00,WeatherCatV1.15B25,2013-04-12 12:10:00,
2013-04-12 08:15:00,31.0,28.4,29.58,SSW,195,1.0,2.0,90,0.00,,,0.00,WeatherCatV1.15B25,2013-04-12 12:15:00,
2013-04-12 08:20:00,31.0,28.4,29.58,SSW,195,1.0,2.0,90,0.00,,,0.00,WeatherCatV1.15B25,2013-04-12 12:20:00,
2013-04-12 08:25:00,31.0,28.4,29.58,SSW,195,0.0,1.0,90,0.00,,,0.00,WeatherCatV1.15B25,2013-04-12 12:25:00,
2013-04-12 08:35:00,31.0,28.4,29.58,SSW,195,0.0,2.0,90,0.00,,,0.00,WeatherCatV1.15B25,2013-04-12 12:35:00,
2013-04-12 08:40:00,31.1,28.5,29.58,SSW,195,2.0,2.0,90,0.00,,,0.00,WeatherCatV1.15B25,2013-04-12 12:40:00,
2013-04-12 08:45:00,31.2,28.6,29.58,SSW,195,0.0,1.0,90,0.00,,,0.00,WeatherCatV1.15B25,2013-04-12 12:45:00,
2013-04-12 08:50:00,31.2,28.6,29.58,SSW,195,0.0,1.0,90,0.00,,,0.00,WeatherCatV1.15B25,2013-04-12 12:50:00,
2013-04-12 08:55:00,31.2,28.6,29.58,SSW,195,1.0,1.0,90,0.00,,,0.00,WeatherCatV1.15B25,2013-04-12 12:55:00,
2013-04-12 09:00:00,31.3,28.7,29.58,SSW,195,0.0,1.0,90,0.00,,,0.00,WeatherCatV1.15B25,2013-04-12 13:00:00,
2013-04-12 09:05:00,31.3,28.7,29.58,SSW,195,1.0,1.0,90,0.00,,,0.00,WeatherCatV1.15B25,2013-04-12 13:05:00,
2013-04-12 09:10:00,31.4,28.8,29.58,SSW,195,0.0,1.0,90,0.00,,,0.00,WeatherCatV1.15B25,2013-04-12 13:10:00,
2013-04-12 09:15:00,31.3,28.7,29.58,SSW,195,0.0,1.0,90,0.00,,,0.00,WeatherCatV1.15B25,2013-04-12 13:15:00,
2013-04-12 09:20:00,31.4,28.8,29.58,SSW,195,0.0,1.0,90,0.00,,,0.00,WeatherCatV1.15B25,2013-04-12 13:20:00,
2013-04-12 09:25:00,31.4,28.8,29.58,SSW,195,0.0,0.0,90,0.00,,,0.00,WeatherCatV1.15B25,2013-04-12 13:25:00,
2013-04-12 09:30:00,31.5,28.9,29.58,SSW,195,1.0,1.0,90,0.00,,,0.00,WeatherCatV1.15B25,2013-04-12 13:30:00,
2013-04-12 09:35:00,31.5,28.9,29.58,SSW,195,0.0,0.0,90,0.00,,,0.00,WeatherCatV1.15B25,2013-04-12 13:35:00,
2013-04-12 09:40:00,31.6,29.0,29.58,SSW,195,0.0,2.0,90,0.00,,,0.00,WeatherCatV1.15B25,2013-04-12 13:40:00,
2013-04-12 09:45:00,31.6,29.3,29.58,SSW,195,0.0,0.0,91,0.00,,,0.00,WeatherCatV1.15B25,2013-04-12 13:45:00,
2013-04-12 09:50:00,31.6,29.3,29.58,SSW,195,1.0,2.0,91,0.00,,,0.00,WeatherCatV1.15B25,2013-04-12 13:50:00,
2013-04-12 09:55:00,31.6,29.3,29.58,SSW,195,0.0,1.0,91,0.00,,,0.00,WeatherCatV1.15B25,2013-04-12 13:55:00,
2013-04-12 10:00:00,31.6,29.3,29.58,SSW,195,0.0,0.0,91,0.00,,,0.00,WeatherCatV1.15B25,2013-04-12 14:00:00,
2013-04-12 10:10:00,31.6,29.5,29.58,SSW,195,0.0,1.0,92,0.00,,,0.00,WeatherCatV1.15B25,2013-04-12 14:10:00,
2013-04-12 10:15:00,31.6,29.5,29.58,SSW,195,1.0,1.0,92,0.00,,,0.00,WeatherCatV1.15B25,2013-04-12 14:15:00,
2013-04-12 10:20:00,31.6,29.5,29.58,SSW,195,1.0,1.0,92,0.00,,,0.00,WeatherCatV1.15B25,2013-04-12 14:20:00,
2013-04-12 10:25:00,31.6,29.8,29.58,SSW,195,1.0,1.0,93,0.00,,,0.00,WeatherCatV1.15B25,2013-04-12 14:25:00,
2013-04-12 10:30:00,31.7,29.9,29.58,SSW,195,0.0,0.0,93,0.00,,,0.00,WeatherCatV1.15B25,2013-04-12 14:30:00,
2013-04-12 10:35:00,31.7,29.9,29.58,SSW,195,1.0,1.0,93,0.00,,,0.00,WeatherCatV1.15B25,2013-04-12 14:35:00,
2013-04-12 10:40:00,31.7,29.9,29.58,SSW,195,1.0,1.0,93,0.00,,,0.00,WeatherCatV1.15B25,2013-04-12 14:40:00,
2013-04-12 10:45:00,31.7,29.9,29.58,SSW,195,0.0,0.0,93,0.00,,,0.00,WeatherCatV1.15B25,2013-04-12 14:45:00,
2013-04-12 10:50:00,31.8,30.0,29.58,SSW,195,0.0,0.0,93,0.00,,,0.00,WeatherCatV1.15B25,2013-04-12 14:50:00,
2013-04-12 10:55:00,31.9,30.4,29.58,SSW,195,1.0,1.0,94,0.00,,,0.00,WeatherCatV1.15B25,2013-04-12 14:55:00,
2013-04-12 11:00:00,31.9,30.1,29.58,SSW,195,0.0,1.0,93,0.00,,,0.00,WeatherCatV1.15B25,2013-04-12 15:00:00,
2013-04-12 11:05:00,32.1,30.6,29.58,SSW,195,0.0,1.0,94,0.00,,,0.00,WeatherCatV1.15B25,2013-04-12 15:05:00,
2013-04-12 11:10:00,32.0,30.2,29.58,SSW,195,0.0,1.0,93,0.00,,,0.00,WeatherCatV1.15B25,2013-04-12 15:10:00,
2013-04-12 11:15:00,32.0,30.5,29.58,SSW,195,0.0,0.0,94,0.00,,,0.00,WeatherCatV1.15B25,2013-04-12 15:15:00,
2013-04-12 11:20:00,32.0,30.5,29.58,SSW,195,0.0,1.0,94,0.00,,,0.00,WeatherCatV1.15B25,2013-04-12 15:20:00,
2013-04-12 11:25:00,32.0,30.5,29.57,SSW,195,0.0,1.0,94,0.00,,,0.00,WeatherCatV1.15B25,2013-04-12 15:25:00,
2013-04-12 11:30:00,32.2,30.7,29.57,SSW,195,0.0,1.0,94,0.00,,,0.00,WeatherCatV1.15B25,2013-04-12 15:30:00,
2013-04-12 11:35:00,32.3,30.8,29.57,SSW,195,0.0,1.0,94,0.00,,,0.00,WeatherCatV1.15B25,2013-04-12 15:35:00,
2013-04-12 11:40:00,32.4,30.9,29.57,SSW,195,0.0,1.0,94,0.00,,,0.00,WeatherCatV1.15B25,2013-04-12 15:40:00,
2013-04-12 11:45:00,32.5,31.0,29.57,SSW,195,0.0,1.0,94,0.00,,,0.00,WeatherCatV1.15B25,2013-04-12 15:45:00,
2013-04-12 12:00:00,33.1,31.6,29.58,SSW,195,0.0,0.0,94,0.00,,,0.00,WeatherCatV1.15B25,2013-04-12 16:00:00,
2013-04-12 12:10:00,33.1,31.3,29.58,WNW,300,1.0,1.0,93,0.00,,,0.00,WeatherCatV1.15B25,2013-04-12 16:10:00,
2013-04-12 12:20:00,33.2,31.4,29.58,NE,50,1.0,3.0,93,0.00,,,0.00,WeatherCatV1.15B25,2013-04-12 16:20:00,
2013-04-12 12:25:00,33.3,31.5,29.58,NE,49,1.0,3.0,93,0.00,,,0.00,WeatherCatV1.15B25,2013-04-12 16:25:00,
2013-04-12 12:30:00,33.3,31.2,29.57,NE,56,3.0,4.0,92,0.00,,,0.00,WeatherCatV1.15B25,2013-04-12 16:30:00,
2013-04-12 12:40:00,33.2,31.4,29.57,NNE,16,0.0,4.0,93,0.00,,,0.00,WeatherCatV1.15B25,2013-04-12 16:40:00,
2013-04-12 12:45:00,33.2,31.4,29.58,NE,36,3.0,4.0,93,0.00,,,0.00,WeatherCatV1.15B25,2013-04-12 16:45:00,
2013-04-12 12:50:00,33.3,31.5,29.58,NNW,345,2.0,4.0,93,0.00,,,0.00,WeatherCatV1.15B25,2013-04-12 16:50:00,
2013-04-12 13:00:00,33.3,31.5,29.57,NE,51,1.0,2.0,93,0.00,,,0.00,WeatherCatV1.15B25,2013-04-12 17:00:00,
2013-04-12 13:10:00,33.5,31.7,29.57,ENE,71,1.0,2.0,93,0.00,,,0.00,WeatherCatV1.15B25,2013-04-12 17:10:00,
2013-04-12 13:40:00,33.6,31.8,29.57,NE,56,2.0,3.0,93,0.00,,,0.00,WeatherCatV1.15B25,2013-04-12 17:40:00,
2013-04-12 13:50:00,33.7,31.9,29.57,East,79,0.0,3.0,93,0.00,,,0.00,WeatherCatV1.15B25,2013-04-12 17:50:00,
2013-04-12 13:55:00,33.8,32.0,29.57,NNW,328,1.0,1.0,93,0.00,,,0.00,WeatherCatV1.15B25,2013-04-12 17:55:00,
2013-04-12 14:00:00,33.9,32.1,29.57,East,95,2.0,2.0,93,0.00,,,0.00,WeatherCatV1.15B25,2013-04-12 18:00:00,
2013-04-12 14:10:00,33.9,32.1,29.57,NNE,15,2.0,3.0,93,0.00,,,0.00,WeatherCatV1.15B25,2013-04-12 18:10:00,
2013-04-12 14:20:00,33.9,32.1,29.57,ENE,75,1.0,2.0,93,0.00,,,0.00,WeatherCatV1.15B25,2013-04-12 18:20:00,
2013-04-12 14:25:00,33.9,32.4,29.57,ENE,57,1.0,3.0,94,0.00,,,0.00,WeatherCatV1.15B25,2013-04-12 18:25:00,
2013-04-12 14:30:00,33.9,32.4,29.58,NE,35,1.0,3.0,94,0.00,,,0.00,WeatherCatV1.15B25,2013-04-12 18:30:00,
2013-04-12 14:35:00,33.8,32.0,29.58,NNE,31,1.0,4.0,93,0.00,,,0.00,WeatherCatV1.15B25,2013-04-12 18:35:00,
2013-04-12 14:40:00,34.0,32.5,29.58,NE,46,1.0,2.0,94,0.00,,,0.00,WeatherCatV1.15B25,2013-04-12 18:40:00,
2013-04-12 14:45:00,34.1,32.6,29.58,NE,41,1.0,1.0,94,0.00,,,0.00,WeatherCatV1.15B25,2013-04-12 18:45:00,
2013-04-12 14:50:00,34.5,33.0,29.58,NNE,22,1.0,0.0,94,0.00,,,0.00,WeatherCatV1.15B25,2013-04-12 18:50:00,
2013-04-12 14:55:00,34.8,33.3,29.58,NE,36,1.0,2.0,94,0.00,,,0.00,WeatherCatV1.15B25,2013-04-12 18:55:00,
2013-04-12 15:00:00,34.7,32.9,29.58,NE,34,1.0,2.0,93,0.00,,,0.00,WeatherCatV1.15B25,2013-04-12 19:00:00,
2013-04-12 15:05:00,34.5,32.7,29.58,NNE,27,1.0,2.0,93,0.00,,,0.00,WeatherCatV1.15B25,2013-04-12 19:05:00,
2013-04-12 15:10:00,34.5,33.0,29.58,ENE,57,1.0,2.0,94,0.00,,,0.00,WeatherCatV1.15B25,2013-04-12 19:10:00,
2013-04-12 15:15:00,34.5,32.7,29.58,NNE,17,1.0,1.0,93,0.00,,,0.00,WeatherCatV1.15B25,2013-04-12 19:15:00,
2013-04-12 15:29:00,34.5,32.7,29.58,NE,36,1.0,3.0,93,0.00,,,0.00,WeatherCatV1.15B25,2013-04-12 19:29:00,
2013-04-12 15:34:00,34.5,33.0,29.58,North,358,2.0,3.0,94,0.00,,,0.00,WeatherCatV1.15B25,2013-04-12 19:34:00,
2013-04-12 15:39:00,34.7,33.2,29.58,NE,44,2.0,2.0,94,0.00,,,0.00,WeatherCatV1.15B25,2013-04-12 19:39:00,
2013-04-12 15:49:00,34.9,33.1,29.58,East,97,1.0,3.0,93,0.00,,,0.00,WeatherCatV1.15B25,2013-04-12 19:49:00,
2013-04-12 15:54:00,35.2,33.6,29.58,ESE,117,0.0,3.0,94,0.00,,,0.00,WeatherCatV1.15B25,2013-04-12 19:54:00,
2013-04-12 15:59:00,35.3,33.5,29.58,North,358,1.0,2.0,93,0.00,,,0.00,WeatherCatV1.15B25,2013-04-12 19:59:00,
2013-04-12 16:09:00,35.6,33.8,29.58,NNE,17,2.0,2.0,93,0.00,,,0.00,WeatherCatV1.15B25,2013-04-12 20:09:00,
2013-04-12 16:14:00,35.4,33.6,29.58,NNE,20,1.0,3.0,93,0.00,,,0.00,WeatherCatV1.15B25,2013-04-12 20:14:00,
2013-04-12 16:19:00,35.5,33.7,29.58,North,353,0.0,3.0,93,0.00,,,0.00,WeatherCatV1.15B25,2013-04-12 20:19:00,
2013-04-12 16:29:00,35.5,33.7,29.58,NE,39,1.0,3.0,93,0.00,,,0.00,WeatherCatV1.15B25,2013-04-12 20:29:00,
2013-04-12 16:34:00,35.3,33.5,29.58,WNW,302,1.0,4.0,93,0.00,,,0.00,WeatherCatV1.15B25,2013-04-12 20:34:00,
2013-04-12 16:39:00,35.4,33.6,29.58,NE,54,1.0,2.0,93,0.00,,,0.00,WeatherCatV1.15B25,2013-04-12 20:39:00,
2013-04-12 16:49:00,35.6,33.8,29.58,NNW,332,0.0,3.0,93,0.00,,,0.00,WeatherCatV1.15B25,2013-04-12 20:49:00,
2013-04-12 16:59:00,35.5,33.7,29.58,NE,37,1.0,1.0,93,0.00,,,0.00,WeatherCatV1.15B25,2013-04-12 20:59:00,
2013-04-12 17:04:00,35.4,33.6,29.58,NNW,329,4.0,4.0,93,0.00,,,0.00,WeatherCatV1.15B25,2013-04-12 21:04:00,
2013-04-12 17:09:00,35.4,33.6,29.59,NE,56,0.0,2.0,93,0.00,,,0.00,WeatherCatV1.15B25,2013-04-12 21:09:00,
2013-04-12 17:14:00,35.5,33.9,29.59,WNW,294,3.0,3.0,94,0.00,,,0.00,WeatherCatV1.15B25,2013-04-12 21:14:00,
2013-04-12 17:19:00,35.5,33.7,29.59,North,1,2.0,4.0,93,0.00,,,0.00,WeatherCatV1.15B25,2013-04-12 21:19:00,
2013-04-12 17:24:00,35.5,33.9,29.59,NW,310,0.0,2.0,94,0.00,,,0.00,WeatherCatV1.15B25,2013-04-12 21:24:00,
2013-04-12 17:29:00,35.4,33.6,29.59,WNW,297,0.0,1.0,93,0.00,,,0.00,WeatherCatV1.15B25,2013-04-12 21:29:00,
2013-04-12 17:34:00,35.4,33.8,29.59,NNW,329,0.0,2.0,94,0.00,,,0.00,WeatherCatV1.15B25,2013-04-12 21:34:00,
2013-04-12 17:39:00,35.4,33.8,29.59,NNW,332,0.0,1.0,94,0.00,,,0.00,WeatherCatV1.15B25,2013-04-12 21:39:00,
2013-04-12 17:44:00,35.3,33.7,29.59,ENE,60,0.0,2.0,94,0.00,,,0.00,WeatherCatV1.15B25,2013-04-12 21:44:00,
2013-04-12 17:49:00,35.3,33.7,29.60,WNW,301,2.0,2.0,94,0.00,,,0.00,WeatherCatV1.15B25,2013-04-12 21:49:00,
2013-04-12 17:54:00,35.2,33.6,29.60,NNW,332,0.0,1.0,94,0.00,,,0.00,WeatherCatV1.15B25,2013-04-12 21:54:00,
2013-04-12 17:59:00,35.2,33.6,29.60,NW,319,0.0,1.0,94,0.00,,,0.00,WeatherCatV1.15B25,2013-04-12 21:59:00,
2013-04-12 18:04:00,35.2,33.6,29.60,North,354,0.0,1.0,94,0.00,,,0.00,WeatherCatV1.15B25,2013-04-12 22:04:00,
2013-04-12 18:09:00,35.2,33.6,29.60,West,277,0.0,0.0,94,0.00,,,0.00,WeatherCatV1.15B25,2013-04-12 22:09:00,
2013-04-12 18:14:00,35.2,33.6,29.60,NE,39,0.0,1.0,94,0.00,,,0.00,WeatherCatV1.15B25,2013-04-12 22:14:00,
2013-04-12 18:19:00,35.2,33.6,29.60,NNE,27,0.0,1.0,94,0.00,,,0.00,WeatherCatV1.15B25,2013-04-12 22:19:00,
2013-04-12 18:24:00,35.1,33.5,29.61,WNW,290,0.0,1.0,94,0.00,,,0.00,WeatherCatV1.15B25,2013-04-12 22:24:00,
2013-04-12 18:29:00,35.0,33.5,29.61,West,279,0.0,1.0,94,0.00,,,0.00,WeatherCatV1.15B25,2013-04-12 22:29:00,
2013-04-12 18:34:00,34.8,33.3,29.61,West,281,0.0,0.0,94,0.00,,,0.00,WeatherCatV1.15B25,2013-04-12 22:34:00,
2013-04-12 18:39:00,34.7,33.2,29.61,NNE,27,1.0,1.0,94,0.00,,,0.00,WeatherCatV1.15B25,2013-04-12 22:39:00,
2013-04-12 18:44:00,34.5,33.0,29.61,NW,307,0.0,1.0,94,0.00,,,0.00,WeatherCatV1.15B25,2013-04-12 22:44:00,
2013-04-12 18:49:00,34.4,32.9,29.62,NE,46,0.0,4.0,94,0.00,,,0.00,WeatherCatV1.15B25,2013-04-12 22:49:00,
2013-04-12 18:54:00,34.3,32.8,29.62,NW,326,1.0,2.0,94,0.00,,,0.00,WeatherCatV1.15B25,2013-04-12 22:54:00,
2013-04-12 18:59:00,34.2,32.9,29.62,ENE,64,0.0,1.0,95,0.00,,,0.00,WeatherCatV1.15B25,2013-04-12 22:59:00,
2013-04-12 19:04:00,34.1,32.8,29.62,WNW,283,0.0,0.0,95,0.00,,,0.00,WeatherCatV1.15B25,2013-04-12 23:04:00,
2013-04-12 19:09:00,33.9,32.6,29.62,NW,316,1.0,3.0,95,0.00,,,0.00,WeatherCatV1.15B25,2013-04-12 23:09:00,
2013-04-12 19:14:00,33.8,32.5,29.63,NW,314,1.0,2.0,95,0.00,,,0.00,WeatherCatV1.15B25,2013-04-12 23:14:00,
2013-04-12 19:19:00,33.6,32.3,29.63,West,270,1.0,2.0,95,0.00,,,0.00,WeatherCatV1.15B25,2013-04-12 23:19:00,
2013-04-12 19:24:00,33.5,32.2,29.63,WNW,299,0.0,0.0,95,0.00,,,0.00,WeatherCatV1.15B25,2013-04-12 23:24:00,
2013-04-12 19:29:00,33.4,32.1,29.63,West,277,2.0,2.0,95,0.00,,,0.00,WeatherCatV1.15B25,2013-04-12 23:29:00,
2013-04-12 19:34:00,33.2,31.9,29.63,NE,41,1.0,2.0,95,0.00,,,0.00,WeatherCatV1.15B25,2013-04-12 23:34:00,
2013-04-12 19:39:00,33.1,31.8,29.63,WNW,293,1.0,3.0,95,0.00,,,0.00,WeatherCatV1.15B25,2013-04-12 23:39:00,
2013-04-12 19:44:00,33.1,31.8,29.63,West,276,0.0,1.0,95,0.00,,,0.00,WeatherCatV1.15B25,2013-04-12 23:44:00,
2013-04-12 19:49:00,33.0,31.7,29.64,WNW,285,0.0,1.0,95,0.00,,,0.00,WeatherCatV1.15B25,2013-04-12 23:49:00,
2013-04-12 19:54:00,33.1,31.8,29.63,West,274,0.0,1.0,95,0.00,,,0.00,WeatherCatV1.15B25,2013-04-12 23:54:00,
2013-04-12 19:59:00,33.1,31.8,29.63,West,278,0.0,1.0,95,0.00,,,0.00,WeatherCatV1.15B25,2013-04-12 23:59:00,
2013-04-12 20:04:00,33.2,31.9,29.63,WSW,252,0.0,0.0,95,0.00,,,0.00,WeatherCatV1.15B25,2013-04-13 00:04:00,
2013-04-12 20:14:00,33.3,32.0,29.63,WNW,285,0.0,0.0,95,0.00,,,0.00,WeatherCatV1.15B25,2013-04-13 00:14:00,
2013-04-12 20:19:00,33.2,31.9,29.64,SW,232,0.0,0.0,95,0.00,,,0.00,WeatherCatV1.15B25,2013-04-13 00:19:00,
2013-04-12 20:24:00,33.2,31.9,29.64,SW,221,0.0,2.0,95,0.00,,,0.00,WeatherCatV1.15B25,2013-04-13 00:24:00,
2013-04-12 20:29:00,33.3,32.3,29.64,West,276,2.0,3.0,96,0.00,,,0.00,WeatherCatV1.15B25,2013-04-13 00:29:00,
2013-04-12 20:34:00,33.3,32.3,29.64,SW,214,2.0,3.0,96,0.00,,,0.00,WeatherCatV1.15B25,2013-04-13 00:34:00,
2013-04-12 20:39:00,33.4,32.1,29.64,WNW,290,0.0,3.0,95,0.00,,,0.00,WeatherCatV1.15B25,2013-04-13 00:39:00,
2013-04-12 20:44:00,33.3,32.0,29.65,WNW,287,1.0,3.0,95,0.00,,,0.00,WeatherCatV1.15B25,2013-04-13 00:44:00,
2013-04-12 20:49:00,33.3,32.0,29.65,WNW,291,0.0,2.0,95,0.00,,,0.00,WeatherCatV1.15B25,2013-04-13 00:49:00,
2013-04-12 20:54:00,33.3,32.0,29.65,West,274,3.0,6.0,95,0.00,,,0.00,WeatherCatV1.15B25,2013-04-13 00:54:00,
2013-04-12 20:59:00,33.3,32.0,29.65,SSE,163,0.0,4.0,95,0.00,,,0.00,WeatherCatV1.15B25,2013-04-13 00:59:00,
2013-04-12 21:04:00,33.3,32.0,29.66,WNW,286,0.0,2.0,95,0.00,,,0.00,WeatherCatV1.15B25,2013-04-13 01:04:00,
2013-04-12 21:09:00,33.3,31.8,29.66,West,274,3.0,5.0,94,0.00,,,0.00,WeatherCatV1.15B25,2013-04-13 01:09:00,
2013-04-12 21:19:00,33.3,31.8,29.66,West,273,1.0,4.0,94,0.00,,,0.00,WeatherCatV1.15B25,2013-04-13 01:19:00,
2013-04-12 21:29:00,33.3,31.8,29.66,SE,134,0.0,1.0,94,0.00,,,0.00,WeatherCatV1.15B25,2013-04-13 01:29:00,
2013-04-12 21:34:00,33.3,31.5,29.66,WNW,291,1.0,1.0,93,0.00,,,0.00,WeatherCatV1.15B25,2013-04-13 01:34:00,
2013-04-12 21:39:00,33.3,31.5,29.66,SW,232,0.0,0.0,93,0.00,,,0.00,WeatherCatV1.15B25,2013-04-13 01:39:00,
2013-04-12 21:44:00,33.3,31.5,29.66,WSW,257,3.0,8.0,93,0.00,,,0.00,WeatherCatV1.15B25,2013-04-13 01:44:00,
2013-04-12 21:49:00,33.2,31.4,29.66,West,278,0.0,2.0,93,0.00,,,0.00,WeatherCatV1.15B25,2013-04-13 01:49:00,
2013-04-12 21:54:00,33.2,31.4,29.66,SW,236,0.0,3.0,93,0.00,,,0.00,WeatherCatV1.15B25,2013-04-13 01:54:00,
2013-04-12 21:55:00,33.2,31.4,29.66,WSW,256,1.0,1.0,93,0.00,,,0.00,WeatherCatV1.15B25,2013-04-13 01:55:00,
2013-04-12 22:00:00,33.1,31.3,29.66,SW,236,1.0,2.0,93,0.00,,,0.00,WeatherCatV1.15B25,2013-04-13 02:00:00,
2013-04-12 22:05:00,33.1,31.3,29.66,SW,236,1.0,2.0,93,0.00,,,0.00,WeatherCatV1.15B25,2013-04-13 02:05:00,
2013-04-12 22:10:00,33.1,31.3,29.66,SW,236,1.0,2.0,93,0.00,,,0.00,WeatherCatV1.15B25,2013-04-13 02:10:00,
2013-04-12 22:15:00,33.1,31.3,29.66,SW,236,1.0,2.0,93,0.00,,,0.00,WeatherCatV1.15B25,2013-04-13 02:15:00,
2013-04-12 22:20:00,33.1,31.3,29.66,SW,236,1.0,2.0,93,0.00,,,0.00,WeatherCatV1.15B25,2013-04-13 02:20:00,
2013-04-12 22:25:00,33.1,31.3,29.66,SW,236,1.0,2.0,93,0.00,,,0.00,WeatherCatV1.15B25,2013-04-13 02:25:00,
2013-04-12 22:30:00,33.1,31.3,29.66,West,270,1.0,8.0,93,0.00,,,0.00,WeatherCatV1.15B25,2013-04-13 02:30:00,
2013-04-12 22:35:00,33.1,31.3,29.66,West,270,1.0,8.0,93,0.00,,,0.00,WeatherCatV1.15B25,2013-04-13 02:35:00,
2013-04-12 22:40:00,33.1,31.3,29.66,West,270,1.0,8.0,93,0.00,,,0.00,WeatherCatV1.15B25,2013-04-13 02:40:00,
2013-04-12 22:45:00,33.1,31.3,29.66,West,270,1.0,8.0,93,0.00,,,0.00,WeatherCatV1.15B25,2013-04-13 02:45:00,
2013-04-12 22:50:00,33.1,31.3,29.66,West,270,1.0,8.0,93,0.00,,,0.00,WeatherCatV1.15B25,2013-04-13 02:50:00,
2013-04-12 22:55:00,33.1,31.3,29.66,West,270,1.0,8.0,93,0.00,,,0.00,WeatherCatV1.15B25,2013-04-13 02:55:00,
2013-04-12 23:00:00,32.8,31.3,29.67,WSW,248,1.0,7.0,94,0.00,,,0.00,WeatherCatV1.15B25,2013-04-13 03:00:00,
2013-04-12 23:05:00,32.8,31.3,29.67,WSW,248,1.0,7.0,94,0.00,,,0.00,WeatherCatV1.15B25,2013-04-13 03:05:00,
2013-04-12 23:10:00,32.8,31.3,29.67,WSW,248,1.0,7.0,94,0.00,,,0.00,WeatherCatV1.15B25,2013-04-13 03:10:00,
2013-04-12 23:15:00,32.8,31.3,29.67,WSW,248,1.0,7.0,94,0.00,,,0.00,WeatherCatV1.15B25,2013-04-13 03:15:00,
2013-04-12 23:20:00,32.8,31.3,29.67,WSW,248,1.0,7.0,94,0.00,,,0.00,WeatherCatV1.15B25,2013-04-13 03:20:00,
2013-04-12 23:25:00,32.8,31.3,29.67,WSW,248,1.0,7.0,94,0.00,,,0.00,WeatherCatV1.15B25,2013-04-13 03:25:00,
2013-04-12 23:30:00,32.8,31.0,29.67,West,270,1.0,6.0,93,0.00,,,0.00,WeatherCatV1.15B25,2013-04-13 03:30:00,
2013-04-12 23:35:00,32.8,31.0,29.67,West,270,1.0,6.0,93,0.00,,,0.00,WeatherCatV1.15B25,2013-04-13 03:35:00,
2013-04-12 23:40:00,32.8,31.0,29.67,West,270,1.0,6.0,93,0.00,,,0.00,WeatherCatV1.15B25,2013-04-13 03:40:00,
2013-04-12 23:45:00,32.8,31.0,29.67,West,270,1.0,6.0,93,0.00,,,0.00,WeatherCatV1.15B25,2013-04-13 03:45:00,
2013-04-12 23:50:00,32.8,31.0,29.67,West,270,1.0,6.0,93,0.00,,,0.00,WeatherCatV1.15B25,2013-04-13 03:50:00,
2013-04-12 23:55:00,32.8,31.0,29.67,West,270,1.0,6.0,93,0.00,,,0.00,WeatherCatV1.15B25,2013-04-13 03:55:00,